sensor_id;sensor_type;location;lat;lon;timestamp;temperature;humidity
3136;DHT22;1578;47.658;9.922;2022-08-02T00:01:25;16.80;71.50
3136;DHT22;1578;47.658;9.922;2022-08-02T00:03:51;16.80;71.50
3136;DHT22;1578;47.658;9.922;2022-08-02T00:06:16;16.80;71.50
3136;DHT22;1578;47.658;9.922;2022-08-02T00:08:45;16.80;70.60
3136;DHT22;1578;47.658;9.922;2022-08-02T00:11:10;16.80;71.40
3136;DHT22;1578;47.658;9.922;2022-08-02T00:13:36;16.80;71.50
3136;DHT22;1578;47.658;9.922;2022-08-02T00:16:02;16.80;71.50
3136;DHT22;1578;47.658;9.922;2022-08-02T00:18:28;16.90;71.60
3136;DHT22;1578;47.658;9.922;2022-08-02T00:20:54;16.90;69.10
3136;DHT22;1578;47.658;9.922;2022-08-02T00:23:19;17.00;69.00
3136;DHT22;1578;47.658;9.922;2022-08-02T00:25:45;17.00;70.30
3136;DHT22;1578;47.658;9.922;2022-08-02T00:28:11;17.00;68.10
3136;DHT22;1578;47.658;9.922;2022-08-02T00:30:37;17.00;68.50
3136;DHT22;1578;47.658;9.922;2022-08-02T00:33:03;16.90;69.10
3136;DHT22;1578;47.658;9.922;2022-08-02T00:35:30;17.00;69.50
3136;DHT22;1578;47.658;9.922;2022-08-02T00:37:56;17.00;69.10
3136;DHT22;1578;47.658;9.922;2022-08-02T00:40:23;17.00;69.10
3136;DHT22;1578;47.658;9.922;2022-08-02T00:45:29;17.00;67.90
3136;DHT22;1578;47.658;9.922;2022-08-02T00:47:55;17.00;69.70
3136;DHT22;1578;47.658;9.922;2022-08-02T00:50:20;17.00;70.20
3136;DHT22;1578;47.658;9.922;2022-08-02T00:52:46;16.90;71.60
3136;DHT22;1578;47.658;9.922;2022-08-02T00:55:11;16.90;70.80
3136;DHT22;1578;47.658;9.922;2022-08-02T00:57:37;16.90;70.70
3136;DHT22;1578;47.658;9.922;2022-08-02T01:00:05;17.00;68.80
3136;DHT22;1578;47.658;9.922;2022-08-02T01:02:30;17.00;68.00
3136;DHT22;1578;47.658;9.922;2022-08-02T01:04:56;16.90;68.80
3136;DHT22;1578;47.658;9.922;2022-08-02T01:07:22;16.90;68.90
3136;DHT22;1578;47.658;9.922;2022-08-02T01:09:47;17.00;67.60
3136;DHT22;1578;47.658;9.922;2022-08-02T01:12:13;17.00;67.00
3136;DHT22;1578;47.658;9.922;2022-08-02T01:14:44;17.00;66.20
3136;DHT22;1578;47.658;9.922;2022-08-02T01:39:39;16.80;64.80
3136;DHT22;1578;47.658;9.922;2022-08-02T01:42:07;16.80;64.80
3136;DHT22;1578;47.658;9.922;2022-08-02T01:44:36;16.70;64.60
3136;DHT22;1578;47.658;9.922;2022-08-02T01:47:06;16.70;65.50
3136;DHT22;1578;47.658;9.922;2022-08-02T01:49:35;16.70;65.30
3136;DHT22;1578;47.658;9.922;2022-08-02T01:52:04;16.60;64.20
3136;DHT22;1578;47.658;9.922;2022-08-02T01:57:20;16.50;65.30
3136;DHT22;1578;47.658;9.922;2022-08-02T01:59:48;16.50;66.50
3136;DHT22;1578;47.658;9.922;2022-08-02T02:02:15;16.50;66.20
3136;DHT22;1578;47.658;9.922;2022-08-02T02:04:43;16.50;64.30
3136;DHT22;1578;47.658;9.922;2022-08-02T02:07:12;16.50;61.70
3136;DHT22;1578;47.658;9.922;2022-08-02T02:09:38;16.40;61.60
3136;DHT22;1578;47.658;9.922;2022-08-02T02:12:05;16.30;61.90
3136;DHT22;1578;47.658;9.922;2022-08-02T02:14:32;16.30;62.10
3136;DHT22;1578;47.658;9.922;2022-08-02T02:17:00;16.10;62.90
3136;DHT22;1578;47.658;9.922;2022-08-02T02:19:27;16.00;64.00
3136;DHT22;1578;47.658;9.922;2022-08-02T02:21:54;15.90;65.00
3136;DHT22;1578;47.658;9.922;2022-08-02T02:24:19;15.90;65.50
3136;DHT22;1578;47.658;9.922;2022-08-02T02:26:45;15.80;66.30
3136;DHT22;1578;47.658;9.922;2022-08-02T02:29:12;15.80;66.50
3136;DHT22;1578;47.658;9.922;2022-08-02T02:31:40;15.80;66.40
3136;DHT22;1578;47.658;9.922;2022-08-02T02:34:10;15.70;66.80
3136;DHT22;1578;47.658;9.922;2022-08-02T02:36:38;15.70;67.00
3136;DHT22;1578;47.658;9.922;2022-08-02T02:39:06;15.60;67.80
3136;DHT22;1578;47.658;9.922;2022-08-02T02:41:36;15.60;67.60
3136;DHT22;1578;47.658;9.922;2022-08-02T02:44:02;15.60;69.00
3136;DHT22;1578;47.658;9.922;2022-08-02T02:46:30;15.60;67.70
3136;DHT22;1578;47.658;9.922;2022-08-02T02:48:57;15.60;67.40
3136;DHT22;1578;47.658;9.922;2022-08-02T02:51:23;15.70;67.90
3136;DHT22;1578;47.658;9.922;2022-08-02T02:53:50;15.70;66.80
3136;DHT22;1578;47.658;9.922;2022-08-02T02:56:17;15.70;65.70
3136;DHT22;1578;47.658;9.922;2022-08-02T02:58:44;15.70;65.60
3136;DHT22;1578;47.658;9.922;2022-08-02T03:01:10;15.70;64.90
3136;DHT22;1578;47.658;9.922;2022-08-02T03:03:56;15.60;65.50
3136;DHT22;1578;47.658;9.922;2022-08-02T03:06:21;15.50;65.20
3136;DHT22;1578;47.658;9.922;2022-08-02T03:08:47;15.40;66.10
3136;DHT22;1578;47.658;9.922;2022-08-02T03:11:13;15.30;67.20
3136;DHT22;1578;47.658;9.922;2022-08-02T03:13:39;15.20;68.50
3136;DHT22;1578;47.658;9.922;2022-08-02T03:16:06;15.10;68.70
3136;DHT22;1578;47.658;9.922;2022-08-02T03:18:37;15.10;69.90
3136;DHT22;1578;47.658;9.922;2022-08-02T03:21:09;15.10;69.70
3136;DHT22;1578;47.658;9.922;2022-08-02T03:23:36;15.10;69.40
3136;DHT22;1578;47.658;9.922;2022-08-02T03:26:02;15.10;69.90
3136;DHT22;1578;47.658;9.922;2022-08-02T03:28:28;15.10;69.50
3136;DHT22;1578;47.658;9.922;2022-08-02T03:30:54;15.00;70.30
3136;DHT22;1578;47.658;9.922;2022-08-02T03:33:20;15.00;69.80
3136;DHT22;1578;47.658;9.922;2022-08-02T03:35:47;15.00;69.80
3136;DHT22;1578;47.658;9.922;2022-08-02T03:38:16;15.00;69.80
3136;DHT22;1578;47.658;9.922;2022-08-02T03:40:43;15.00;69.80
3136;DHT22;1578;47.658;9.922;2022-08-02T03:43:10;15.00;69.80
3136;DHT22;1578;47.658;9.922;2022-08-02T03:45:38;15.00;69.80
3136;DHT22;1578;47.658;9.922;2022-08-02T03:48:06;15.00;67.50
3136;DHT22;1578;47.658;9.922;2022-08-02T03:50:33;14.90;67.30
3136;DHT22;1578;47.658;9.922;2022-08-02T03:53:00;14.70;67.60
3136;DHT22;1578;47.658;9.922;2022-08-02T03:55:26;14.70;69.50
3136;DHT22;1578;47.658;9.922;2022-08-02T03:57:52;14.60;69.90
3136;DHT22;1578;47.658;9.922;2022-08-02T04:00:19;14.50;70.80
3136;DHT22;1578;47.658;9.922;2022-08-02T04:02:45;14.50;71.30
3136;DHT22;1578;47.658;9.922;2022-08-02T04:05:11;14.40;71.70
3136;DHT22;1578;47.658;9.922;2022-08-02T04:07:38;14.40;72.10
3136;DHT22;1578;47.658;9.922;2022-08-02T04:10:04;14.30;72.80
3136;DHT22;1578;47.658;9.922;2022-08-02T04:12:30;14.30;73.30
3136;DHT22;1578;47.658;9.922;2022-08-02T04:14:56;14.30;74.50
3136;DHT22;1578;47.658;9.922;2022-08-02T04:17:22;14.40;74.00
3136;DHT22;1578;47.658;9.922;2022-08-02T04:19:55;14.50;73.60
3136;DHT22;1578;47.658;9.922;2022-08-02T04:22:25;14.50;73.90
3136;DHT22;1578;47.658;9.922;2022-08-02T04:25:00;14.50;72.90
3136;DHT22;1578;47.658;9.922;2022-08-02T04:27:28;14.60;72.30
3136;DHT22;1578;47.658;9.922;2022-08-02T04:29:56;14.60;71.80
3136;DHT22;1578;47.658;9.922;2022-08-02T04:32:23;14.60;72.10
3136;DHT22;1578;47.658;9.922;2022-08-02T04:34:49;14.70;71.80
3136;DHT22;1578;47.658;9.922;2022-08-02T04:37:15;14.70;70.30
3136;DHT22;1578;47.658;9.922;2022-08-02T04:39:41;14.70;70.30
3136;DHT22;1578;47.658;9.922;2022-08-02T04:42:07;14.70;72.00
3136;DHT22;1578;47.658;9.922;2022-08-02T04:44:33;14.80;71.30
3136;DHT22;1578;47.658;9.922;2022-08-02T04:46:59;14.80;71.50
3136;DHT22;1578;47.658;9.922;2022-08-02T04:49:27;14.90;72.40
3136;DHT22;1578;47.658;9.922;2022-08-02T04:51:53;14.90;72.10
3136;DHT22;1578;47.658;9.922;2022-08-02T04:54:19;14.90;72.20
3136;DHT22;1578;47.658;9.922;2022-08-02T04:56:45;15.00;72.00
3136;DHT22;1578;47.658;9.922;2022-08-02T04:59:11;15.00;72.40
3136;DHT22;1578;47.658;9.922;2022-08-02T05:01:37;15.00;72.80
3136;DHT22;1578;47.658;9.922;2022-08-02T05:04:05;14.90;73.10
3136;DHT22;1578;47.658;9.922;2022-08-02T05:06:31;14.90;73.30
3136;DHT22;1578;47.658;9.922;2022-08-02T05:08:56;15.00;74.00
3136;DHT22;1578;47.658;9.922;2022-08-02T05:11:23;15.00;74.90
3136;DHT22;1578;47.658;9.922;2022-08-02T05:13:49;15.10;75.80
3136;DHT22;1578;47.658;9.922;2022-08-02T05:16:15;15.10;76.80
3136;DHT22;1578;47.658;9.922;2022-08-02T05:18:40;15.20;78.40
3136;DHT22;1578;47.658;9.922;2022-08-02T05:21:06;15.40;81.90
3136;DHT22;1578;47.658;9.922;2022-08-02T05:23:31;15.70;79.20
3136;DHT22;1578;47.658;9.922;2022-08-02T05:25:57;16.10;77.00
3136;DHT22;1578;47.658;9.922;2022-08-02T05:28:23;16.50;70.40
3136;DHT22;1578;47.658;9.922;2022-08-02T05:30:50;16.80;65.60
3136;DHT22;1578;47.658;9.922;2022-08-02T05:33:16;16.90;64.40
3136;DHT22;1578;47.658;9.922;2022-08-02T05:35:41;17.00;70.50
3136;DHT22;1578;47.658;9.922;2022-08-02T05:38:07;17.20;70.00
3136;DHT22;1578;47.658;9.922;2022-08-02T05:40:32;17.70;67.40
3136;DHT22;1578;47.658;9.922;2022-08-02T05:42:58;18.20;68.50
3136;DHT22;1578;47.658;9.922;2022-08-02T05:45:24;18.70;55.40
3136;DHT22;1578;47.658;9.922;2022-08-02T05:47:50;19.20;53.50
3136;DHT22;1578;47.658;9.922;2022-08-02T05:50:16;19.70;50.60
3136;DHT22;1578;47.658;9.922;2022-08-02T05:52:45;20.20;47.50
3136;DHT22;1578;47.658;9.922;2022-08-02T05:55:39;20.60;45.30
3136;DHT22;1578;47.658;9.922;2022-08-02T05:58:17;20.90;42.80
3136;DHT22;1578;47.658;9.922;2022-08-02T06:00:48;21.20;38.30
3136;DHT22;1578;47.658;9.922;2022-08-02T06:03:25;21.40;40.00
3136;DHT22;1578;47.658;9.922;2022-08-02T06:06:14;21.70;38.00
3136;DHT22;1578;47.658;9.922;2022-08-02T06:08:47;22.00;40.20
3136;DHT22;1578;47.658;9.922;2022-08-02T06:11:17;22.20;34.40
3136;DHT22;1578;47.658;9.922;2022-08-02T06:13:45;22.40;37.70
3136;DHT22;1578;47.658;9.922;2022-08-02T06:16:11;22.50;38.00
3136;DHT22;1578;47.658;9.922;2022-08-02T06:18:40;22.60;35.10
3136;DHT22;1578;47.658;9.922;2022-08-02T06:21:06;22.70;34.70
3136;DHT22;1578;47.658;9.922;2022-08-02T06:23:33;22.70;36.90
3136;DHT22;1578;47.658;9.922;2022-08-02T06:26:05;22.90;36.40
3136;DHT22;1578;47.658;9.922;2022-08-02T06:28:32;23.00;34.50
3136;DHT22;1578;47.658;9.922;2022-08-02T06:31:01;23.00;35.40
3136;DHT22;1578;47.658;9.922;2022-08-02T06:33:27;23.10;31.00
3136;DHT22;1578;47.658;9.922;2022-08-02T06:38:33;23.10;32.90
3136;DHT22;1578;47.658;9.922;2022-08-02T06:41:09;23.10;31.80
3136;DHT22;1578;47.658;9.922;2022-08-02T06:44:01;22.90;33.10
3136;DHT22;1578;47.658;9.922;2022-08-02T06:46:29;22.80;33.70
3136;DHT22;1578;47.658;9.922;2022-08-02T06:48:55;22.70;32.70
3136;DHT22;1578;47.658;9.922;2022-08-02T06:51:23;22.80;34.40
3136;DHT22;1578;47.658;9.922;2022-08-02T06:53:48;22.80;33.70
3136;DHT22;1578;47.658;9.922;2022-08-02T06:56:14;22.70;35.80
3136;DHT22;1578;47.658;9.922;2022-08-02T06:58:40;22.80;33.70
3136;DHT22;1578;47.658;9.922;2022-08-02T07:01:06;22.90;32.20
3136;DHT22;1578;47.658;9.922;2022-08-02T07:03:36;23.00;31.60
3136;DHT22;1578;47.658;9.922;2022-08-02T07:06:04;23.00;35.00
3136;DHT22;1578;47.658;9.922;2022-08-02T07:08:29;22.90;35.00
3136;DHT22;1578;47.658;9.922;2022-08-02T07:10:58;22.90;35.80
3136;DHT22;1578;47.658;9.922;2022-08-02T07:13:28;23.10;34.00
3136;DHT22;1578;47.658;9.922;2022-08-02T07:15:54;23.20;30.90
3136;DHT22;1578;47.658;9.922;2022-08-02T07:18:23;23.30;31.00
3136;DHT22;1578;47.658;9.922;2022-08-02T07:20:49;23.30;32.10
3136;DHT22;1578;47.658;9.922;2022-08-02T07:23:15;23.40;31.00
3136;DHT22;1578;47.658;9.922;2022-08-02T07:25:41;23.50;29.50
3136;DHT22;1578;47.658;9.922;2022-08-02T07:28:08;23.60;32.20
3136;DHT22;1578;47.658;9.922;2022-08-02T07:30:35;23.60;31.70
3136;DHT22;1578;47.658;9.922;2022-08-02T07:33:01;23.80;29.30
3136;DHT22;1578;47.658;9.922;2022-08-02T07:35:27;23.80;28.20
3136;DHT22;1578;47.658;9.922;2022-08-02T07:37:52;23.80;29.20
3136;DHT22;1578;47.658;9.922;2022-08-02T07:40:19;23.80;27.90
3136;DHT22;1578;47.658;9.922;2022-08-02T07:42:45;23.70;30.20
3136;DHT22;1578;47.658;9.922;2022-08-02T07:45:12;23.60;28.50
3136;DHT22;1578;47.658;9.922;2022-08-02T07:47:42;23.50;28.30
3136;DHT22;1578;47.658;9.922;2022-08-02T07:50:09;23.50;30.70
3136;DHT22;1578;47.658;9.922;2022-08-02T07:52:36;23.50;28.60
3136;DHT22;1578;47.658;9.922;2022-08-02T07:55:02;23.70;31.30
3136;DHT22;1578;47.658;9.922;2022-08-02T07:57:28;23.90;30.80
3136;DHT22;1578;47.658;9.922;2022-08-02T07:59:54;23.90;29.20
3136;DHT22;1578;47.658;9.922;2022-08-02T08:02:19;24.10;30.70
3136;DHT22;1578;47.658;9.922;2022-08-02T08:04:45;24.40;28.00
3136;DHT22;1578;47.658;9.922;2022-08-02T08:07:10;24.50;26.80
3136;DHT22;1578;47.658;9.922;2022-08-02T08:09:39;24.60;27.50
3136;DHT22;1578;47.658;9.922;2022-08-02T08:12:09;24.70;23.40
3136;DHT22;1578;47.658;9.922;2022-08-02T08:14:35;24.60;25.50
3136;DHT22;1578;47.658;9.922;2022-08-02T08:17:01;24.60;25.20
3136;DHT22;1578;47.658;9.922;2022-08-02T08:19:27;24.70;28.60
3136;DHT22;1578;47.658;9.922;2022-08-02T08:21:53;24.60;29.20
3136;DHT22;1578;47.658;9.922;2022-08-02T08:24:19;24.50;29.50
3136;DHT22;1578;47.658;9.922;2022-08-02T08:26:44;24.70;26.10
3136;DHT22;1578;47.658;9.922;2022-08-02T08:29:10;25.00;24.60
3136;DHT22;1578;47.658;9.922;2022-08-02T08:31:35;25.30;22.70
3136;DHT22;1578;47.658;9.922;2022-08-02T08:34:02;25.20;24.40
3136;DHT22;1578;47.658;9.922;2022-08-02T08:36:28;25.30;25.00
3136;DHT22;1578;47.658;9.922;2022-08-02T08:38:53;25.40;23.50
3136;DHT22;1578;47.658;9.922;2022-08-02T08:41:19;25.30;26.70
3136;DHT22;1578;47.658;9.922;2022-08-02T08:43:46;25.50;23.20
3136;DHT22;1578;47.658;9.922;2022-08-02T08:46:25;25.60;21.20
3136;DHT22;1578;47.658;9.922;2022-08-02T08:48:59;25.70;23.40
3136;DHT22;1578;47.658;9.922;2022-08-02T08:51:35;25.60;24.20
3136;DHT22;1578;47.658;9.922;2022-08-02T08:54:02;25.60;24.80
3136;DHT22;1578;47.658;9.922;2022-08-02T08:56:32;25.70;25.80
3136;DHT22;1578;47.658;9.922;2022-08-02T08:58:59;25.80;23.80
3136;DHT22;1578;47.658;9.922;2022-08-02T09:01:24;25.70;23.70
3136;DHT22;1578;47.658;9.922;2022-08-02T09:03:50;25.40;24.30
3136;DHT22;1578;47.658;9.922;2022-08-02T09:06:16;25.60;27.10
3136;DHT22;1578;47.658;9.922;2022-08-02T09:08:41;25.80;24.50
3136;DHT22;1578;47.658;9.922;2022-08-02T09:11:15;25.90;24.00
3136;DHT22;1578;47.658;9.922;2022-08-02T09:13:58;25.90;23.70
3136;DHT22;1578;47.658;9.922;2022-08-02T09:16:36;26.10;21.30
3136;DHT22;1578;47.658;9.922;2022-08-02T09:19:21;26.20;22.30
3136;DHT22;1578;47.658;9.922;2022-08-02T09:21:49;26.50;20.90
3136;DHT22;1578;47.658;9.922;2022-08-02T09:24:20;26.80;19.30
3136;DHT22;1578;47.658;9.922;2022-08-02T09:26:47;26.90;21.60
3136;DHT22;1578;47.658;9.922;2022-08-02T09:29:13;27.00;20.20
3136;DHT22;1578;47.658;9.922;2022-08-02T09:31:40;27.10;17.80
3136;DHT22;1578;47.658;9.922;2022-08-02T09:34:07;26.80;20.10
3136;DHT22;1578;47.658;9.922;2022-08-02T09:36:44;26.60;15.20
3136;DHT22;1578;47.658;9.922;2022-08-02T09:39:13;26.10;16.10
3136;DHT22;1578;47.658;9.922;2022-08-02T09:41:41;25.70;19.60
3136;DHT22;1578;47.658;9.922;2022-08-02T09:44:09;25.40;22.20
3136;DHT22;1578;47.658;9.922;2022-08-02T09:46:38;25.40;20.90
3136;DHT22;1578;47.658;9.922;2022-08-02T09:49:08;25.30;21.10
3136;DHT22;1578;47.658;9.922;2022-08-02T09:51:36;25.50;23.60
3136;DHT22;1578;47.658;9.922;2022-08-02T09:54:05;25.60;23.80
3136;DHT22;1578;47.658;9.922;2022-08-02T09:56:49;25.70;22.20
3136;DHT22;1578;47.658;9.922;2022-08-02T09:59:16;26.00;21.10
3136;DHT22;1578;47.658;9.922;2022-08-02T10:01:44;26.00;18.90
3136;DHT22;1578;47.658;9.922;2022-08-02T10:04:12;25.70;22.00
3136;DHT22;1578;47.658;9.922;2022-08-02T10:06:39;25.40;21.00
3136;DHT22;1578;47.658;9.922;2022-08-02T10:09:08;25.20;19.80
3136;DHT22;1578;47.658;9.922;2022-08-02T10:11:35;24.80;25.00
3136;DHT22;1578;47.658;9.922;2022-08-02T10:14:05;24.90;22.70
3136;DHT22;1578;47.658;9.922;2022-08-02T10:16:38;25.10;24.30
3136;DHT22;1578;47.658;9.922;2022-08-02T10:19:04;25.50;24.20
3136;DHT22;1578;47.658;9.922;2022-08-02T10:21:37;25.80;22.30
3136;DHT22;1578;47.658;9.922;2022-08-02T10:26:31;26.00;22.60
3136;DHT22;1578;47.658;9.922;2022-08-02T10:28:57;26.30;19.10
3136;DHT22;1578;47.658;9.922;2022-08-02T10:31:59;26.40;21.50
3136;DHT22;1578;47.658;9.922;2022-08-02T10:35:02;26.40;19.90
3136;DHT22;1578;47.658;9.922;2022-08-02T10:37:32;26.70;19.60
3136;DHT22;1578;47.658;9.922;2022-08-02T10:40:00;26.90;16.50
3136;DHT22;1578;47.658;9.922;2022-08-02T10:42:56;26.90;18.40
3136;DHT22;1578;47.658;9.922;2022-08-02T10:45:24;27.10;20.20
3136;DHT22;1578;47.658;9.922;2022-08-02T10:48:06;27.10;19.40
3136;DHT22;1578;47.658;9.922;2022-08-02T10:53:31;27.30;15.40
3136;DHT22;1578;47.658;9.922;2022-08-02T10:56:03;27.50;15.50
3136;DHT22;1578;47.658;9.922;2022-08-02T10:58:32;27.50;18.00
3136;DHT22;1578;47.658;9.922;2022-08-02T11:01:03;27.50;15.90
3136;DHT22;1578;47.658;9.922;2022-08-02T11:03:37;27.30;14.10
3136;DHT22;1578;47.658;9.922;2022-08-02T11:06:13;27.40;13.70
3136;DHT22;1578;47.658;9.922;2022-08-02T11:08:39;27.10;15.00
3136;DHT22;1578;47.658;9.922;2022-08-02T11:14:00;26.40;14.30
3136;DHT22;1578;47.658;9.922;2022-08-02T11:19:20;26.10;18.90
3136;DHT22;1578;47.658;9.922;2022-08-02T11:22:07;26.40;16.10
3136;DHT22;1578;47.658;9.922;2022-08-02T11:24:35;26.40;13.10
3136;DHT22;1578;47.658;9.922;2022-08-02T11:27:03;26.10;17.20
3136;DHT22;1578;47.658;9.922;2022-08-02T11:29:40;26.20;18.10
3136;DHT22;1578;47.658;9.922;2022-08-02T11:32:17;26.30;19.90
3136;DHT22;1578;47.658;9.922;2022-08-02T11:34:45;26.60;16.10
3136;DHT22;1578;47.658;9.922;2022-08-02T11:37:11;26.80;18.00
3136;DHT22;1578;47.658;9.922;2022-08-02T11:39:37;26.90;19.30
3136;DHT22;1578;47.658;9.922;2022-08-02T11:42:03;27.10;19.50
3136;DHT22;1578;47.658;9.922;2022-08-02T11:44:38;27.30;15.90
3136;DHT22;1578;47.658;9.922;2022-08-02T11:47:04;27.50;14.10
3136;DHT22;1578;47.658;9.922;2022-08-02T11:49:31;27.70;15.70
3136;DHT22;1578;47.658;9.922;2022-08-02T11:52:02;27.50;13.70
3136;DHT22;1578;47.658;9.922;2022-08-02T11:54:36;27.30;17.70
3136;DHT22;1578;47.658;9.922;2022-08-02T11:57:15;27.00;19.50
3136;DHT22;1578;47.658;9.922;2022-08-02T11:59:43;27.00;16.90
3136;DHT22;1578;47.658;9.922;2022-08-02T12:02:09;27.00;16.30
3136;DHT22;1578;47.658;9.922;2022-08-02T12:04:35;27.10;15.60
3136;DHT22;1578;47.658;9.922;2022-08-02T12:07:02;26.80;15.50
3136;DHT22;1578;47.658;9.922;2022-08-02T12:09:30;26.70;17.40
3136;DHT22;1578;47.658;9.922;2022-08-02T12:11:56;26.60;14.30
3136;DHT22;1578;47.658;9.922;2022-08-02T12:14:24;26.50;14.60
3136;DHT22;1578;47.658;9.922;2022-08-02T12:16:50;26.40;16.70
3136;DHT22;1578;47.658;9.922;2022-08-02T12:19:34;26.60;15.70
3136;DHT22;1578;47.658;9.922;2022-08-02T12:22:23;26.80;15.80
3136;DHT22;1578;47.658;9.922;2022-08-02T12:24:51;26.90;13.70
3136;DHT22;1578;47.658;9.922;2022-08-02T12:27:34;27.00;13.10
3136;DHT22;1578;47.658;9.922;2022-08-02T12:32:31;27.10;13.40
3136;DHT22;1578;47.658;9.922;2022-08-02T12:35:17;27.00;14.20
3136;DHT22;1578;47.658;9.922;2022-08-02T12:37:47;27.00;13.60
3136;DHT22;1578;47.658;9.922;2022-08-02T12:40:29;27.00;13.90
3136;DHT22;1578;47.658;9.922;2022-08-02T12:43:00;27.20;13.00
3136;DHT22;1578;47.658;9.922;2022-08-02T12:45:28;27.40;12.80
3136;DHT22;1578;47.658;9.922;2022-08-02T12:47:55;27.60;11.30
3136;DHT22;1578;47.658;9.922;2022-08-02T12:53:11;27.20;11.80
3136;DHT22;1578;47.658;9.922;2022-08-02T12:55:49;27.10;13.40
3136;DHT22;1578;47.658;9.922;2022-08-02T12:58:15;27.00;13.40
3136;DHT22;1578;47.658;9.922;2022-08-02T13:00:41;27.10;17.50
3136;DHT22;1578;47.658;9.922;2022-08-02T13:03:08;27.20;11.10
3136;DHT22;1578;47.658;9.922;2022-08-02T13:05:35;27.10;13.40
3136;DHT22;1578;47.658;9.922;2022-08-02T13:08:02;27.20;14.50
3136;DHT22;1578;47.658;9.922;2022-08-02T13:10:28;27.40;14.20
3136;DHT22;1578;47.658;9.922;2022-08-02T13:12:53;27.40;11.20
3136;DHT22;1578;47.658;9.922;2022-08-02T13:15:20;27.50;10.50
3136;DHT22;1578;47.658;9.922;2022-08-02T13:17:47;27.80;11.40
3136;DHT22;1578;47.658;9.922;2022-08-02T13:20:13;27.80;10.30
3136;DHT22;1578;47.658;9.922;2022-08-02T13:22:40;27.90;10.10
3136;DHT22;1578;47.658;9.922;2022-08-02T13:25:07;27.70;10.70
3136;DHT22;1578;47.658;9.922;2022-08-02T13:27:33;27.60;9.70
3136;DHT22;1578;47.658;9.922;2022-08-02T13:30:00;27.50;11.90
3136;DHT22;1578;47.658;9.922;2022-08-02T13:32:26;27.40;14.40
3136;DHT22;1578;47.658;9.922;2022-08-02T13:34:54;27.30;9.80
3136;DHT22;1578;47.658;9.922;2022-08-02T13:37:20;27.30;12.30
3136;DHT22;1578;47.658;9.922;2022-08-02T13:39:46;27.30;9.70
3136;DHT22;1578;47.658;9.922;2022-08-02T13:42:12;27.40;10.10
3136;DHT22;1578;47.658;9.922;2022-08-02T13:44:39;27.30;10.90
3136;DHT22;1578;47.658;9.922;2022-08-02T13:47:05;27.40;10.70
3136;DHT22;1578;47.658;9.922;2022-08-02T13:49:30;27.50;8.50
3136;DHT22;1578;47.658;9.922;2022-08-02T13:51:56;27.40;10.70
3136;DHT22;1578;47.658;9.922;2022-08-02T13:54:21;27.40;10.80
3136;DHT22;1578;47.658;9.922;2022-08-02T13:56:47;27.50;11.20
3136;DHT22;1578;47.658;9.922;2022-08-02T13:59:13;27.60;10.80
3136;DHT22;1578;47.658;9.922;2022-08-02T14:01:38;27.80;7.70
3136;DHT22;1578;47.658;9.922;2022-08-02T14:04:04;27.70;7.70
3136;DHT22;1578;47.658;9.922;2022-08-02T14:06:30;27.70;12.10
3136;DHT22;1578;47.658;9.922;2022-08-02T14:08:55;27.80;7.10
3136;DHT22;1578;47.658;9.922;2022-08-02T14:11:21;27.80;7.60
3136;DHT22;1578;47.658;9.922;2022-08-02T14:13:46;27.60;8.50
3136;DHT22;1578;47.658;9.922;2022-08-02T14:16:12;27.50;11.20
3136;DHT22;1578;47.658;9.922;2022-08-02T14:18:38;27.60;9.90
3136;DHT22;1578;47.658;9.922;2022-08-02T14:21:04;27.70;9.90
3136;DHT22;1578;47.658;9.922;2022-08-02T14:23:30;27.60;8.90
3136;DHT22;1578;47.658;9.922;2022-08-02T14:25:57;27.60;8.20
3136;DHT22;1578;47.658;9.922;2022-08-02T14:28:23;27.50;10.10
3136;DHT22;1578;47.658;9.922;2022-08-02T14:30:49;27.30;9.00
3136;DHT22;1578;47.658;9.922;2022-08-02T14:33:14;27.40;8.40
3136;DHT22;1578;47.658;9.922;2022-08-02T14:35:40;27.50;8.10
3136;DHT22;1578;47.658;9.922;2022-08-02T14:38:06;27.50;10.40
3136;DHT22;1578;47.658;9.922;2022-08-02T14:40:32;27.50;7.90
3136;DHT22;1578;47.658;9.922;2022-08-02T14:43:01;27.50;7.00
3136;DHT22;1578;47.658;9.922;2022-08-02T14:45:28;27.50;6.90
3136;DHT22;1578;47.658;9.922;2022-08-02T14:47:55;27.60;8.80
3136;DHT22;1578;47.658;9.922;2022-08-02T14:50:21;27.70;8.00
3136;DHT22;1578;47.658;9.922;2022-08-02T14:52:47;27.80;7.50
3136;DHT22;1578;47.658;9.922;2022-08-02T14:55:14;27.80;5.30
3136;DHT22;1578;47.658;9.922;2022-08-02T14:57:40;27.60;7.50
3136;DHT22;1578;47.658;9.922;2022-08-02T15:00:06;27.50;7.90
3136;DHT22;1578;47.658;9.922;2022-08-02T15:02:33;27.50;7.10
3136;DHT22;1578;47.658;9.922;2022-08-02T15:04:58;27.70;9.10
3136;DHT22;1578;47.658;9.922;2022-08-02T15:07:24;27.80;7.30
3136;DHT22;1578;47.658;9.922;2022-08-02T15:09:50;28.00;6.70
3136;DHT22;1578;47.658;9.922;2022-08-02T15:12:15;28.00;6.80
3136;DHT22;1578;47.658;9.922;2022-08-02T15:14:41;28.10;7.60
3136;DHT22;1578;47.658;9.922;2022-08-02T15:17:08;28.10;7.90
3136;DHT22;1578;47.658;9.922;2022-08-02T15:19:34;28.20;6.90
3136;DHT22;1578;47.658;9.922;2022-08-02T15:21:59;28.30;5.70
3136;DHT22;1578;47.658;9.922;2022-08-02T15:24:25;28.50;9.40
3136;DHT22;1578;47.658;9.922;2022-08-02T15:26:51;28.40;8.80
3136;DHT22;1578;47.658;9.922;2022-08-02T15:29:18;28.30;6.20
3136;DHT22;1578;47.658;9.922;2022-08-02T15:31:44;28.00;6.30
3136;DHT22;1578;47.658;9.922;2022-08-02T15:34:10;27.90;7.50
3136;DHT22;1578;47.658;9.922;2022-08-02T15:36:36;27.90;5.90
3136;DHT22;1578;47.658;9.922;2022-08-02T15:39:02;28.00;8.20
3136;DHT22;1578;47.658;9.922;2022-08-02T15:41:28;28.00;5.90
3136;DHT22;1578;47.658;9.922;2022-08-02T15:43:53;28.00;7.10
3136;DHT22;1578;47.658;9.922;2022-08-02T15:46:19;28.10;7.00
3136;DHT22;1578;47.658;9.922;2022-08-02T15:48:44;28.10;7.20
3136;DHT22;1578;47.658;9.922;2022-08-02T15:51:10;28.10;5.60
3136;DHT22;1578;47.658;9.922;2022-08-02T15:53:36;28.10;5.40
3136;DHT22;1578;47.658;9.922;2022-08-02T15:56:01;28.10;6.20
3136;DHT22;1578;47.658;9.922;2022-08-02T15:58:27;28.20;6.20
3136;DHT22;1578;47.658;9.922;2022-08-02T16:00:52;28.20;6.60
3136;DHT22;1578;47.658;9.922;2022-08-02T16:03:19;28.20;8.40
3136;DHT22;1578;47.658;9.922;2022-08-02T16:05:44;28.20;10.00
3136;DHT22;1578;47.658;9.922;2022-08-02T16:08:10;28.20;9.80
3136;DHT22;1578;47.658;9.922;2022-08-02T16:10:36;28.30;10.50
3136;DHT22;1578;47.658;9.922;2022-08-02T16:13:02;28.30;10.40
3136;DHT22;1578;47.658;9.922;2022-08-02T16:15:46;28.30;7.70
3136;DHT22;1578;47.658;9.922;2022-08-02T16:18:11;28.30;8.70
3136;DHT22;1578;47.658;9.922;2022-08-02T16:20:37;28.20;8.80
3136;DHT22;1578;47.658;9.922;2022-08-02T16:23:03;28.20;9.60
3136;DHT22;1578;47.658;9.922;2022-08-02T16:25:28;28.20;10.50
3136;DHT22;1578;47.658;9.922;2022-08-02T16:27:54;28.20;11.60
3136;DHT22;1578;47.658;9.922;2022-08-02T16:30:20;28.10;11.50
3136;DHT22;1578;47.658;9.922;2022-08-02T16:32:45;28.00;12.60
3136;DHT22;1578;47.658;9.922;2022-08-02T16:35:11;27.90;12.20
3136;DHT22;1578;47.658;9.922;2022-08-02T16:37:36;27.80;12.10
3136;DHT22;1578;47.658;9.922;2022-08-02T16:40:03;27.80;11.70
3136;DHT22;1578;47.658;9.922;2022-08-02T16:42:28;27.80;12.60
3136;DHT22;1578;47.658;9.922;2022-08-02T16:44:54;27.90;13.60
3136;DHT22;1578;47.658;9.922;2022-08-02T16:47:19;27.90;13.30
3136;DHT22;1578;47.658;9.922;2022-08-02T16:49:45;27.90;14.20
3136;DHT22;1578;47.658;9.922;2022-08-02T16:52:11;27.90;12.90
3136;DHT22;1578;47.658;9.922;2022-08-02T16:54:36;27.80;12.60
3136;DHT22;1578;47.658;9.922;2022-08-02T16:57:02;27.80;13.10